Time;durP1;ratioP1;P1;durP2;ratioP2;P2;SDS_P1;SDS_P2;PMS_P1;PMS_P2;Temp;Humidity;BMP_temperature;BMP_pressure;BME280_temperature;BME280_humidity;BME280_pressure;Samples;Min_cycle;Max_cycle;Signal;HPM_P1;HPM_P2
2021/11/26 00:02:23;;;;;;;8.88;3.38;;;5.20;86.70;;;;;;5094854;28;20036;-77
2021/11/26 00:04:50;;;;;;;9.10;3.58;;;5.30;86.80;;;;;;5094740;28;20017;-78
2021/11/26 00:07:18;;;;;;;4.85;3.10;;;5.30;86.80;;;;;;5094721;28;20020;-77
2021/11/26 00:09:45;;;;;;;9.13;3.10;;;5.30;86.70;;;;;;5094692;28;20027;-77
2021/11/26 00:12:11;;;;;;;9.20;3.70;;;5.40;86.70;;;;;;5094640;28;20016;-77
2021/11/26 00:14:44;;;;;;;9.82;3.22;;;5.40;86.60;;;;;;5094752;28;20111;-77
2021/11/26 00:17:16;;;;;;;8.85;3.50;;;5.30;86.50;;;;;;5094510;28;20028;-76
2021/11/26 00:19:46;;;;;;;7.27;3.50;;;5.40;86.50;;;;;;5094604;28;20025;-77
2021/11/26 00:22:12;;;;;;;9.63;3.47;;;5.30;86.50;;;;;;5094439;28;20311;-77
2021/11/26 00:24:38;;;;;;;7.38;3.70;;;5.30;86.60;;;;;;5094493;28;20023;-77
2021/11/26 00:27:04;;;;;;;6.38;3.25;;;5.30;86.60;;;;;;5094763;28;20544;-77
2021/11/26 00:29:30;;;;;;;8.50;3.42;;;5.30;86.50;;;;;;5094244;28;20118;-76
2021/11/26 00:31:55;;;;;;;7.43;3.05;;;5.40;86.50;;;;;;5094111;28;20049;-76
2021/11/26 00:34:21;;;;;;;8.82;3.35;;;5.40;86.50;;;;;;5094145;28;20023;-75
2021/11/26 00:36:47;;;;;;;7.35;3.63;;;5.50;86.50;;;;;;5094229;28;20134;-76
2021/11/26 00:39:12;;;;;;;7.82;3.80;;;5.50;86.50;;;;;;5094042;28;20380;-75
2021/11/26 00:41:38;;;;;;;6.70;3.03;;;5.50;86.50;;;;;;5094122;28;20058;-76
2021/11/26 00:44:04;;;;;;;7.38;3.58;;;5.50;86.30;;;;;;5093068;28;20489;-75
2021/11/26 00:46:32;;;;;;;6.90;3.28;;;5.60;86.30;;;;;;5093881;28;20021;-75
2021/11/26 00:48:58;;;;;;;5.93;3.10;;;5.60;86.30;;;;;;5094076;28;20028;-76
2021/11/26 00:51:24;;;;;;;8.00;3.28;;;5.60;86.20;;;;;;5094025;28;20047;-76
2021/11/26 00:53:49;;;;;;;9.45;3.58;;;5.60;86.20;;;;;;5094005;28;20021;-76
2021/11/26 00:56:15;;;;;;;8.43;3.05;;;5.60;86.20;;;;;;5094107;28;20127;-76
2021/11/26 00:58:41;;;;;;;8.43;3.20;;;5.60;86.20;;;;;;5093781;28;20020;-76
2021/11/26 01:01:06;;;;;;;6.65;3.05;;;5.70;86.30;;;;;;5093921;28;20082;-76
2021/11/26 01:03:32;;;;;;;7.45;3.30;;;5.70;86.20;;;;;;5093995;28;20020;-77
2021/11/26 01:05:58;;;;;;;6.65;3.00;;;5.80;86.20;;;;;;5093963;28;20069;-77
2021/11/26 01:08:24;;;;;;;8.40;2.75;;;5.80;86.10;;;;;;5093952;28;20495;-76
2021/11/26 01:10:50;;;;;;;5.82;2.80;;;5.90;86.10;;;;;;5094000;28;20135;-75
2021/11/26 01:13:16;;;;;;;10.88;3.00;;;5.90;86.00;;;;;;5093699;28;20425;-76
2021/11/26 01:15:43;;;;;;;11.95;3.28;;;6.00;85.90;;;;;;5093729;28;20119;-75
2021/11/26 01:18:10;;;;;;;9.38;3.67;;;6.00;85.80;;;;;;5093561;28;20522;-74
2021/11/26 01:20:37;;;;;;;8.18;2.97;;;6.00;85.90;;;;;;5093696;28;20027;-75
2021/11/26 01:23:04;;;;;;;6.97;3.10;;;5.90;85.90;;;;;;5094949;28;20166;-74
2021/11/26 01:25:30;;;;;;;5.55;2.80;;;5.90;85.90;;;;;;5093947;28;20460;-74
2021/11/26 01:27:56;;;;;;;7.40;2.88;;;5.90;86.00;;;;;;5093580;28;20028;-74
2021/11/26 01:30:28;;;;;;;5.55;2.80;;;5.90;86.00;;;;;;5093440;28;20027;-74
2021/11/26 01:32:55;;;;;;;6.78;2.60;;;5.90;86.00;;;;;;5093700;28;20035;-74
2021/11/26 01:35:21;;;;;;;7.25;2.70;;;5.90;86.00;;;;;;5093352;28;20447;-74
2021/11/26 01:37:47;;;;;;;5.03;2.67;;;5.90;86.00;;;;;;5093457;28;20118;-75
2021/11/26 01:40:14;;;;;;;6.78;3.40;;;5.90;86.00;;;;;;5093159;28;20027;-74
2021/11/26 01:42:41;;;;;;;6.38;2.20;;;5.90;86.00;;;;;;5093088;28;20572;-74
2021/11/26 01:45:07;;;;;;;6.72;2.63;;;5.90;86.00;;;;;;5093026;28;20615;-74
2021/11/26 01:47:33;;;;;;;5.05;2.60;;;5.90;86.00;;;;;;5093078;28;20089;-76
2021/11/26 01:49:59;;;;;;;4.65;2.00;;;5.90;86.00;;;;;;5093110;28;20047;-75
2021/11/26 01:52:25;;;;;;;5.80;2.20;;;5.90;86.00;;;;;;5093012;28;20472;-74
2021/11/26 01:54:50;;;;;;;5.97;2.40;;;5.90;86.00;;;;;;5092843;28;20020;-74
2021/11/26 01:57:17;;;;;;;4.90;2.25;;;5.90;86.00;;;;;;5092922;28;20452;-74
2021/11/26 01:59:43;;;;;;;6.60;2.50;;;6.00;86.10;;;;;;5092806;28;20492;-75
2021/11/26 02:02:10;;;;;;;5.78;2.40;;;6.00;86.00;;;;;;5092723;28;20052;-74
2021/11/26 02:04:35;;;;;;;4.72;2.30;;;6.00;86.00;;;;;;5092563;28;20085;-73
2021/11/26 02:07:01;;;;;;;4.35;2.05;;;6.10;86.00;;;;;;5094007;28;20030;-74
2021/11/26 02:09:28;;;;;;;3.85;2.20;;;6.10;85.90;;;;;;5093951;28;20085;-74
2021/11/26 02:11:54;;;;;;;5.70;2.90;;;6.10;85.90;;;;;;5092661;28;20027;-75
2021/11/26 02:14:20;;;;;;;4.82;2.20;;;6.10;85.90;;;;;;5092528;28;20024;-74
2021/11/26 02:16:48;;;;;;;5.40;2.40;;;6.10;86.00;;;;;;5092563;28;20028;-74
2021/11/26 02:19:14;;;;;;;6.60;2.55;;;6.10;85.90;;;;;;5092485;28;20096;-74
2021/11/26 02:21:41;;;;;;;5.97;2.28;;;6.10;86.00;;;;;;5092878;28;20036;-74
2021/11/26 02:24:08;;;;;;;5.55;1.90;;;6.00;85.90;;;;;;5092401;28;20020;-74
2021/11/26 02:26:39;;;;;;;5.65;1.80;;;6.10;86.00;;;;;;5092368;28;20035;-74
2021/11/26 02:29:05;;;;;;;3.72;2.08;;;6.10;86.00;;;;;;5092328;28;20107;-74
2021/11/26 02:31:31;;;;;;;3.92;1.60;;;6.10;86.00;;;;;;5092431;28;20017;-74
2021/11/26 02:33:57;;;;;;;3.78;1.65;;;6.10;85.90;;;;;;5093541;28;20024;-74
2021/11/26 02:36:23;;;;;;;4.80;1.70;;;6.10;86.00;;;;;;5093584;28;20020;-74
2021/11/26 02:38:49;;;;;;;1.65;1.05;;;6.10;85.90;;;;;;5092419;28;20391;-74
2021/11/26 02:41:15;;;;;;;2.33;1.20;;;6.10;85.90;;;;;;5093588;28;20024;-74
2021/11/26 02:43:40;;;;;;;4.90;1.45;;;6.10;85.90;;;;;;5092087;28;20016;-74
2021/11/26 02:46:08;;;;;;;2.28;1.20;;;6.10;85.80;;;;;;5092019;28;20495;-74
2021/11/26 02:48:33;;;;;;;3.40;1.30;;;6.20;85.90;;;;;;5092075;28;20561;-74
2021/11/26 02:50:59;;;;;;;2.47;1.38;;;6.20;85.90;;;;;;5093291;28;20032;-74
2021/11/26 02:53:24;;;;;;;3.72;1.50;;;6.20;85.80;;;;;;5093384;28;20032;-74
2021/11/26 02:55:51;;;;;;;2.42;1.25;;;6.30;85.90;;;;;;5093185;28;20111;-73
2021/11/26 02:58:17;;;;;;;3.42;1.38;;;6.30;86.00;;;;;;5091824;28;20036;-73
2021/11/26 03:00:47;;;;;;;2.50;1.20;;;6.30;85.90;;;;;;5093111;28;20496;-74
2021/11/26 03:03:12;;;;;;;3.20;1.42;;;6.30;86.00;;;;;;5091891;28;20024;-73
2021/11/26 03:05:39;;;;;;;3.75;1.25;;;6.30;86.00;;;;;;5091724;28;20499;-73
2021/11/26 03:08:07;;;;;;;3.03;1.20;;;6.30;86.10;;;;;;5091200;28;20067;-75
2021/11/26 03:10:33;;;;;;;3.13;1.25;;;6.30;86.10;;;;;;5091807;28;20134;-74
2021/11/26 03:13:02;;;;;;;2.70;1.15;;;6.30;86.10;;;;;;5091877;28;20024;-74
2021/11/26 03:15:33;;;;;;;2.67;1.30;;;6.30;86.20;;;;;;5091785;28;20085;-74
2021/11/26 03:17:59;;;;;;;2.78;1.23;;;6.30;86.20;;;;;;5091652;28;20074;-74
2021/11/26 03:20:27;;;;;;;3.03;1.27;;;6.30;86.30;;;;;;5091760;28;20024;-74
2021/11/26 03:22:53;;;;;;;2.10;1.50;;;6.30;86.30;;;;;;5091761;28;20028;-74
2021/11/26 03:25:19;;;;;;;2.78;1.67;;;6.40;86.30;;;;;;5088798;28;20584;-74
2021/11/26 03:27:45;;;;;;;3.72;2.03;;;6.30;86.30;;;;;;5092288;28;20051;-74
2021/11/26 03:30:14;;;;;;;4.18;2.20;;;6.30;86.30;;;;;;5091683;28;20039;-75
2021/11/26 03:32:40;;;;;;;4.30;2.20;;;6.30;86.40;;;;;;5091520;28;20024;-74
2021/11/26 03:35:07;;;;;;;3.58;2.38;;;6.20;86.50;;;;;;5091744;28;20122;-75
2021/11/26 03:37:34;;;;;;;4.70;2.97;;;6.20;86.60;;;;;;5091597;28;20111;-76
2021/11/26 03:40:01;;;;;;;5.03;2.33;;;6.10;86.70;;;;;;5091602;28;20033;-74
2021/11/26 03:42:26;;;;;;;4.00;2.80;;;6.10;86.80;;;;;;5091580;28;20491;-74
2021/11/26 03:44:52;;;;;;;5.25;2.95;;;6.10;86.90;;;;;;5091421;28;20126;-74
2021/11/26 03:47:18;;;;;;;4.03;2.60;;;6.10;87.00;;;;;;5091568;28;20139;-74
2021/11/26 03:49:43;;;;;;;4.00;2.55;;;6.10;87.00;;;;;;5091651;28;20158;-74
2021/11/26 03:52:09;;;;;;;5.25;2.90;;;6.10;87.10;;;;;;5091460;28;20028;-74
2021/11/26 03:54:35;;;;;;;3.97;2.70;;;6.10;87.10;;;;;;5091483;28;20093;-75
2021/11/26 03:57:01;;;;;;;7.90;2.85;;;6.20;87.10;;;;;;5091336;28;20020;-74
2021/11/26 03:59:27;;;;;;;3.72;2.60;;;6.20;87.10;;;;;;5091451;28;20024;-74
2021/11/26 04:01:52;;;;;;;4.50;2.78;;;6.20;87.00;;;;;;5091190;28;20404;-74
2021/11/26 04:04:18;;;;;;;5.15;2.80;;;6.20;87.00;;;;;;5091469;28;20016;-75
2021/11/26 04:06:43;;;;;;;6.13;2.92;;;6.30;87.10;;;;;;5091292;28;20028;-74
2021/11/26 04:09:09;;;;;;;4.93;2.70;;;6.30;87.00;;;;;;5091327;28;20112;-74
2021/11/26 04:11:35;;;;;;;4.97;2.90;;;6.30;87.00;;;;;;5091574;28;20028;-75
2021/11/26 04:14:00;;;;;;;3.58;2.90;;;6.20;86.90;;;;;;5091377;28;20032;-74
2021/11/26 04:16:26;;;;;;;4.20;3.00;;;6.30;86.90;;;;;;5091203;28;20172;-74
2021/11/26 04:18:51;;;;;;;6.53;3.15;;;6.20;86.90;;;;;;5092842;28;20108;-74
2021/11/26 04:21:17;;;;;;;6.43;2.88;;;6.20;87.00;;;;;;5094739;28;20056;-74
2021/11/26 04:23:44;;;;;;;3.90;2.70;;;6.20;87.10;;;;;;5094870;28;20024;-74
2021/11/26 04:26:10;;;;;;;2.55;2.25;;;6.20;87.00;;;;;;5095122;28;20043;-74
2021/11/26 04:28:36;;;;;;;5.63;2.55;;;6.30;87.10;;;;;;5096023;28;20115;-74
2021/11/26 04:31:03;;;;;;;2.83;2.10;;;6.30;87.10;;;;;;5095983;28;20067;-74
2021/11/26 04:33:28;;;;;;;3.55;2.10;;;6.20;87.00;;;;;;5094674;28;20031;-74
2021/11/26 04:35:54;;;;;;;2.67;2.25;;;6.20;87.00;;;;;;5094594;28;20020;-74
2021/11/26 04:38:20;;;;;;;5.05;2.47;;;6.20;87.10;;;;;;5094552;28;20032;-74
2021/11/26 04:40:46;;;;;;;2.42;1.75;;;6.20;87.20;;;;;;5094904;28;20027;-73
2021/11/26 04:43:14;;;;;;;3.20;1.70;;;6.20;87.10;;;;;;5094485;28;20020;-74
2021/11/26 04:45:40;;;;;;;2.88;1.77;;;6.20;87.10;;;;;;5094340;28;20104;-74
2021/11/26 04:48:06;;;;;;;2.10;1.55;;;6.20;87.10;;;;;;5094431;28;20086;-74
2021/11/26 04:50:31;;;;;;;3.53;1.50;;;6.30;87.10;;;;;;5094426;28;20024;-74
2021/11/26 04:52:57;;;;;;;3.25;1.20;;;6.30;87.10;;;;;;5094183;28;20031;-74
2021/11/26 04:55:23;;;;;;;3.10;1.27;;;6.30;87.10;;;;;;5094337;28;20429;-74
2021/11/26 04:57:49;;;;;;;2.15;1.00;;;6.20;87.00;;;;;;5095346;28;20055;-74
2021/11/26 05:00:17;;;;;;;3.70;1.10;;;6.30;87.10;;;;;;5094051;28;20047;-74
2021/11/26 05:02:44;;;;;;;3.45;1.20;;;6.30;87.60;;;;;;5094031;28;20483;-74
2021/11/26 05:05:10;;;;;;;1.63;1.00;;;6.30;87.00;;;;;;5094040;28;20035;-73
2021/11/26 05:07:36;;;;;;;3.28;1.10;;;6.30;86.90;;;;;;5093997;28;20024;-74
2021/11/26 05:10:04;;;;;;;3.05;1.23;;;6.20;86.90;;;;;;5094030;28;20051;-74
2021/11/26 05:12:40;;;;;;;2.40;0.63;;;6.20;86.90;;;;;;5095193;28;20074;-74
2021/11/26 05:15:07;;;;;;;3.72;1.10;;;6.20;87.00;;;;;;5093888;28;20020;-74
2021/11/26 05:17:33;;;;;;;1.27;0.70;;;6.20;87.10;;;;;;5095125;28;20035;-73
2021/11/26 05:19:59;;;;;;;4.47;1.13;;;6.10;87.70;;;;;;5095047;28;20073;-74
2021/11/26 05:22:25;;;;;;;1.70;0.82;;;6.10;87.10;;;;;;5093738;28;20028;-74
2021/11/26 05:24:51;;;;;;;3.85;1.10;;;6.10;87.10;;;;;;5093712;28;20024;-74
2021/11/26 05:27:17;;;;;;;7.65;1.20;;;6.10;87.10;;;;;;5093631;28;20081;-74
2021/11/26 05:29:43;;;;;;;2.72;0.77;;;6.10;87.10;;;;;;5093075;28;20028;-74
2021/11/26 05:32:10;;;;;;;2.80;0.98;;;6.10;87.10;;;;;;5093473;28;20494;-74
2021/11/26 05:34:35;;;;;;;2.08;0.85;;;6.10;87.10;;;;;;5093435;28;20031;-73
2021/11/26 05:37:01;;;;;;;2.50;0.93;;;6.10;87.10;;;;;;5093415;28;20127;-73
2021/11/26 05:39:27;;;;;;;2.92;1.00;;;6.10;87.20;;;;;;5094635;28;20040;-74
2021/11/26 05:41:52;;;;;;;1.65;0.85;;;6.10;87.30;;;;;;5093335;28;20028;-74
2021/11/26 05:44:18;;;;;;;3.38;0.80;;;6.10;87.30;;;;;;5093300;28;20024;-73
2021/11/26 05:46:44;;;;;;;5.63;1.02;;;6.10;87.30;;;;;;5093163;28;20028;-74
2021/11/26 05:49:09;;;;;;;1.90;0.60;;;6.10;87.30;;;;;;5093192;28;20084;-74
2021/11/26 05:51:35;;;;;;;0.95;0.70;;;6.10;87.30;;;;;;5093076;28;20028;-74
2021/11/26 05:54:01;;;;;;;1.52;0.82;;;6.10;87.20;;;;;;5093097;28;20020;-74
2021/11/26 05:56:26;;;;;;;2.28;0.73;;;6.10;87.10;;;;;;5094346;28;20040;-74
2021/11/26 05:58:52;;;;;;;1.05;0.70;;;6.10;87.10;;;;;;5092870;28;20026;-74
2021/11/26 06:01:17;;;;;;;1.65;0.77;;;6.10;87.70;;;;;;5093743;28;20052;-74
2021/11/26 06:03:43;;;;;;;2.38;0.80;;;6.10;87.10;;;;;;5092896;28;20166;-74
2021/11/26 06:06:09;;;;;;;1.92;0.95;;;6.10;87.10;;;;;;5093219;28;20027;-73
2021/11/26 06:08:34;;;;;;;0.88;0.70;;;6.10;87.70;;;;;;5094053;28;20063;-74
2021/11/26 06:11:00;;;;;;;5.05;2.78;;;6.10;87.10;;;;;;5092774;28;20086;-74
2021/11/26 06:13:26;;;;;;;1.65;0.80;;;6.10;87.10;;;;;;5092776;28;20063;-74
2021/11/26 06:15:52;;;;;;;3.65;1.08;;;6.10;87.10;;;;;;5093984;28;20396;-74
2021/11/26 06:18:18;;;;;;;2.17;1.00;;;6.10;87.10;;;;;;5092605;28;20062;-74
2021/11/26 06:20:43;;;;;;;2.60;1.30;;;6.10;87.00;;;;;;5092673;28;20028;-74
2021/11/26 06:23:10;;;;;;;2.03;1.13;;;6.10;86.90;;;;;;5092534;28;20028;-73
2021/11/26 06:25:35;;;;;;;2.80;1.13;;;6.10;86.90;;;;;;5092604;28;20475;-73
2021/11/26 06:28:01;;;;;;;3.50;1.50;;;6.10;86.90;;;;;;5092444;28;20020;-74
2021/11/26 06:30:27;;;;;;;2.88;1.15;;;6.10;87.00;;;;;;5092430;28;20032;-74
2021/11/26 06:32:55;;;;;;;3.15;1.27;;;6.00;87.00;;;;;;5092400;28;20032;-74
2021/11/26 06:35:24;;;;;;;1.63;1.35;;;6.10;87.10;;;;;;5092711;28;20024;-73
2021/11/26 06:37:52;;;;;;;3.10;1.50;;;6.10;87.00;;;;;;5092364;28;20475;-74
2021/11/26 06:40:19;;;;;;;2.58;1.38;;;6.10;87.00;;;;;;5092300;28;20024;-74
2021/11/26 06:42:45;;;;;;;2.78;1.65;;;6.10;87.00;;;;;;5091345;28;20034;-74
2021/11/26 06:45:11;;;;;;;3.45;1.65;;;6.10;86.90;;;;;;5092092;28;20074;-73
2021/11/26 06:47:38;;;;;;;2.80;1.80;;;6.10;86.90;;;;;;5092196;28;20395;-74
2021/11/26 06:50:05;;;;;;;4.15;1.60;;;6.10;86.90;;;;;;5093400;28;20040;-74
2021/11/26 06:52:31;;;;;;;2.60;1.63;;;6.10;87.00;;;;;;5092171;28;20035;-74
2021/11/26 06:54:57;;;;;;;5.88;1.90;;;6.20;87.00;;;;;;5092016;28;20038;-73
2021/11/26 06:57:23;;;;;;;4.80;2.05;;;6.20;87.00;;;;;;5092090;28;20032;-74
2021/11/26 06:59:48;;;;;;;4.88;2.28;;;6.20;87.00;;;;;;5091585;28;20464;-73
2021/11/26 07:02:14;;;;;;;4.20;2.10;;;6.20;87.00;;;;;;5091851;28;20081;-74
2021/11/26 07:04:43;;;;;;;5.60;2.10;;;6.20;87.00;;;;;;5093158;28;20035;-73
2021/11/26 07:07:09;;;;;;;3.47;1.58;;;6.20;87.00;;;;;;5093157;28;20024;-74
2021/11/26 07:09:34;;;;;;;6.07;1.95;;;6.20;87.00;;;;;;5091903;28;20035;-74
2021/11/26 07:12:00;;;;;;;6.20;2.50;;;6.20;87.00;;;;;;5091778;28;20535;-73
2021/11/26 07:14:26;;;;;;;8.80;2.38;;;6.20;87.00;;;;;;5091780;28;20471;-74
2021/11/26 07:16:51;;;;;;;8.15;2.70;;;6.20;87.10;;;;;;5091563;28;20028;-74
2021/11/26 07:19:17;;;;;;;5.13;2.20;;;6.10;87.00;;;;;;5092947;28;20055;-74
2021/11/26 07:21:44;;;;;;;7.25;2.17;;;6.10;87.10;;;;;;5093146;28;20105;-74
2021/11/26 07:24:10;;;;;;;6.68;2.45;;;6.10;87.10;;;;;;5091706;28;20032;-74
2021/11/26 07:26:36;;;;;;;4.55;2.20;;;6.10;87.10;;;;;;5091884;28;20024;-74
2021/11/26 07:29:02;;;;;;;6.13;2.47;;;6.10;87.10;;;;;;5091696;28;20042;-74
2021/11/26 07:31:28;;;;;;;5.80;2.40;;;6.10;87.20;;;;;;5092899;28;20502;-74
2021/11/26 07:33:54;;;;;;;7.80;2.22;;;6.10;87.30;;;;;;5091558;28;20123;-74
2021/11/26 07:36:19;;;;;;;7.75;2.95;;;6.10;87.20;;;;;;5091698;28;20024;-74
2021/11/26 07:42:10;;;;;;;6.07;2.42;;;6.00;87.20;;;;;;5093066;28;20038;-74
2021/11/26 07:44:37;;;;;;;8.85;2.55;;;6.00;87.20;;;;;;5091359;28;20253;-74
2021/11/26 07:47:05;;;;;;;6.55;2.83;;;6.00;87.10;;;;;;5091392;28;20464;-74
2021/11/26 07:49:31;;;;;;;7.95;3.53;;;6.10;87.10;;;;;;5091183;28;20040;-74
2021/11/26 07:51:58;;;;;;;8.98;3.13;;;6.00;87.10;;;;;;5092729;28;20436;-74
2021/11/26 07:54:25;;;;;;;5.72;3.30;;;6.10;87.70;;;;;;5094009;28;20078;-74
2021/11/26 07:56:51;;;;;;;9.25;3.38;;;6.00;87.10;;;;;;5095264;28;20028;-75
2021/11/26 07:59:16;;;;;;;12.13;3.63;;;6.00;87.10;;;;;;5095368;28;20028;-74
2021/11/26 08:01:43;;;;;;;6.43;3.00;;;6.00;87.10;;;;;;5096251;28;20101;-74
2021/11/26 08:04:09;;;;;;;8.55;3.30;;;6.00;87.20;;;;;;5095177;28;20461;-73
2021/11/26 08:06:34;;;;;;;10.77;4.05;;;5.90;87.10;;;;;;5095186;28;20031;-73
2021/11/26 08:09:00;;;;;;;6.18;3.28;;;5.90;87.20;;;;;;5095176;28;20395;-73
2021/11/26 08:11:25;;;;;;;9.05;3.50;;;5.90;87.20;;;;;;5095121;28;20032;-73
2021/11/26 08:13:51;;;;;;;8.45;3.60;;;5.90;87.20;;;;;;5095413;28;20031;-74
2021/11/26 08:16:17;;;;;;;7.95;3.50;;;5.90;87.20;;;;;;5095205;28;20040;-72
2021/11/26 08:18:43;;;;;;;6.82;3.50;;;6.00;87.20;;;;;;5096149;28;20082;-74
2021/11/26 08:21:08;;;;;;;8.95;3.33;;;6.00;87.10;;;;;;5094803;28;20020;-74
2021/11/26 08:23:34;;;;;;;6.50;3.28;;;6.00;87.00;;;;;;5094912;28;20182;-73
2021/11/26 08:26:00;;;;;;;9.38;3.58;;;6.00;87.40;;;;;;5094946;28;20024;-73
2021/11/26 08:28:27;;;;;;;10.93;3.78;;;6.10;86.70;;;;;;5094865;28;20109;-73
2021/11/26 08:30:54;;;;;;;11.13;3.55;;;6.10;86.60;;;;;;5094784;28;20043;-73
2021/11/26 08:33:20;;;;;;;9.63;3.90;;;6.10;86.50;;;;;;5094660;28;20404;-73
2021/11/26 08:35:48;;;;;;;10.82;3.67;;;6.20;86.50;;;;;;5096228;28;20028;-73
2021/11/26 08:38:14;;;;;;;13.57;3.90;;;6.20;86.10;;;;;;5094630;28;20082;-74
2021/11/26 08:40:39;;;;;;;9.20;3.10;;;6.20;86.00;;;;;;5094483;28;20484;-74
2021/11/26 08:43:05;;;;;;;14.13;4.15;;;6.20;86.00;;;;;;5094487;28;20077;-73
2021/11/26 08:45:31;;;;;;;8.25;3.42;;;6.20;85.90;;;;;;5095928;28;20020;-74
2021/11/26 08:47:56;;;;;;;11.88;3.90;;;6.20;85.80;;;;;;5094416;28;20038;-74
2021/11/26 08:50:22;;;;;;;13.63;3.72;;;6.20;85.70;;;;;;5094314;28;20407;-74
2021/11/26 08:52:48;;;;;;;11.10;3.78;;;6.30;85.60;;;;;;5095768;28;20032;-73
2021/11/26 08:55:17;;;;;;;9.77;3.53;;;6.30;85.50;;;;;;5094087;28;20035;-73
2021/11/26 08:57:54;;;;;;;8.68;3.85;;;6.30;85.50;;;;;;5094117;28;20020;-73
2021/11/26 09:00:25;;;;;;;10.50;4.18;;;6.40;85.50;;;;;;5094041;28;20032;-74
2021/11/26 09:06:24;;;;;;;10.45;4.20;;;6.40;85.00;;;;;;5094494;28;20078;-74
2021/11/26 09:08:50;;;;;;;8.57;3.75;;;6.40;85.10;;;;;;5093952;28;20114;-74
2021/11/26 09:11:16;;;;;;;11.40;3.70;;;6.40;84.90;;;;;;5094017;28;20085;-75
2021/11/26 09:13:42;;;;;;;12.73;3.70;;;6.40;84.90;;;;;;5095333;28;20024;-75
2021/11/26 09:16:09;;;;;;;12.65;3.85;;;6.40;84.70;;;;;;5093917;28;20483;-75
2021/11/26 09:18:35;;;;;;;10.00;3.78;;;6.40;84.70;;;;;;5094073;28;20028;-75
2021/11/26 09:21:01;;;;;;;15.18;4.30;;;6.40;84.70;;;;;;5094082;28;20020;-75
2021/11/26 09:23:27;;;;;;;12.57;4.65;;;6.40;84.60;;;;;;5093867;28;20112;-76
2021/11/26 09:25:55;;;;;;;12.55;4.60;;;6.50;84.40;;;;;;5093870;28;20056;-74
2021/11/26 09:28:22;;;;;;;15.70;4.90;;;6.50;84.30;;;;;;5094008;28;20024;-74
2021/11/26 09:30:49;;;;;;;12.63;4.25;;;6.40;84.00;;;;;;5093551;28;20403;-75
2021/11/26 09:33:16;;;;;;;11.85;4.10;;;6.40;84.00;;;;;;5093616;28;20507;-75
2021/11/26 09:35:41;;;;;;;13.18;4.18;;;6.40;84.10;;;;;;5093455;28;20676;-76
2021/11/26 09:38:07;;;;;;;15.07;4.45;;;6.50;84.00;;;;;;5093593;28;20118;-76
2021/11/26 09:40:33;;;;;;;13.10;4.07;;;6.50;84.00;;;;;;5093503;28;20020;-74
2021/11/26 09:43:00;;;;;;;15.75;5.18;;;6.50;83.90;;;;;;5094811;28;20028;-74
2021/11/26 09:45:27;;;;;;;10.07;3.95;;;6.50;83.90;;;;;;5093228;28;20030;-75
2021/11/26 09:47:54;;;;;;;9.02;3.83;;;6.50;83.90;;;;;;5093354;28;20035;-75
2021/11/26 09:50:23;;;;;;;12.05;3.95;;;6.50;83.90;;;;;;5094534;28;20032;-75
2021/11/26 09:52:49;;;;;;;12.18;3.88;;;6.40;83.80;;;;;;5094503;28;20060;-77
2021/11/26 09:55:19;;;;;;;12.15;3.88;;;6.50;83.70;;;;;;5094071;28;20036;-75
2021/11/26 09:57:46;;;;;;;10.30;3.70;;;6.40;83.50;;;;;;5093086;28;20024;-75
2021/11/26 10:00:14;;;;;;;12.70;3.95;;;6.50;83.50;;;;;;5092884;28;20086;-76
2021/11/26 10:02:54;;;;;;;9.18;3.58;;;6.50;83.40;;;;;;5093022;28;20028;-75
2021/11/26 10:05:20;;;;;;;10.27;3.55;;;6.60;83.20;;;;;;5092964;28;20034;-74
2021/11/26 10:07:46;;;;;;;9.13;3.50;;;6.60;83.10;;;;;;5093046;28;20031;-75
2021/11/26 10:10:14;;;;;;;10.18;3.53;;;6.60;82.80;;;;;;5094302;28;20020;-75
2021/11/26 10:12:41;;;;;;;8.55;3.17;;;6.70;82.50;;;;;;5093121;28;20089;-75
2021/11/26 10:15:06;;;;;;;8.05;3.42;;;6.70;82.50;;;;;;5092708;28;20016;-75
2021/11/26 10:17:32;;;;;;;9.07;3.00;;;6.80;82.40;;;;;;5092743;28;20027;-75
2021/11/26 10:19:59;;;;;;;7.05;2.75;;;6.80;82.30;;;;;;5093973;28;20028;-75
2021/11/26 10:22:25;;;;;;;7.90;3.10;;;6.90;82.00;;;;;;5092658;28;20502;-76
2021/11/26 10:24:59;;;;;;;8.48;3.30;;;6.90;81.90;;;;;;5092727;28;20032;-75
2021/11/26 10:27:47;;;;;;;10.35;3.15;;;7.00;81.60;;;;;;5092652;28;20344;-75
2021/11/26 10:30:29;;;;;;;6.72;3.08;;;7.00;81.60;;;;;;5092504;28;20059;-76
2021/11/26 10:33:05;;;;;;;8.20;2.80;;;7.10;81.40;;;;;;5092373;28;20059;-74
2021/11/26 10:35:37;;;;;;;9.85;3.38;;;7.10;81.10;;;;;;5092388;28;20495;-76
2021/11/26 10:38:09;;;;;;;12.15;3.45;;;7.20;81.00;;;;;;5092266;28;20032;-74
2021/11/26 10:40:39;;;;;;;9.30;3.08;;;7.30;80.60;;;;;;5092659;28;20060;-74
2021/11/26 10:43:12;;;;;;;7.22;3.17;;;7.30;80.00;;;;;;5092186;28;20529;-75
2021/11/26 10:48:31;;;;;;;11.48;3.58;;;7.40;80.00;;;;;;5093832;28;20067;-74
2021/11/26 10:51:03;;;;;;;8.00;3.22;;;7.40;79.50;;;;;;5092058;28;20042;-74
2021/11/26 10:59:03;;;;;;;7.15;2.92;;;7.40;79.50;;;;;;5093247;28;20038;-74
2021/11/26 11:01:29;;;;;;;10.73;3.50;;;7.30;80.00;;;;;;5091796;28;20052;-74
2021/11/26 11:03:55;;;;;;;10.35;3.30;;;7.40;79.00;;;;;;5091932;28;20074;-74
2021/11/26 11:06:24;;;;;;;9.07;2.60;;;7.30;79.10;;;;;;5091863;28;20020;-74
2021/11/26 11:09:05;;;;;;;7.20;2.95;;;7.40;78.80;;;;;;5092231;28;20028;-74
2021/11/26 11:11:31;;;;;;;5.47;2.60;;;7.30;78.90;;;;;;5091860;28;20081;-74
2021/11/26 11:13:58;;;;;;;7.38;2.60;;;7.30;78.90;;;;;;5091901;28;20035;-74
2021/11/26 11:16:25;;;;;;;7.13;2.67;;;7.40;79.10;;;;;;5091611;28;20024;-73
2021/11/26 11:18:51;;;;;;;7.32;2.45;;;7.40;78.90;;;;;;5091675;28;20039;-73
2021/11/26 11:21:17;;;;;;;9.80;2.58;;;7.40;78.90;;;;;;5091625;28;20032;-74
2021/11/26 11:23:43;;;;;;;7.63;3.10;;;7.40;78.90;;;;;;5089109;28;20032;-74
2021/11/26 11:26:08;;;;;;;7.72;2.83;;;7.50;78.40;;;;;;5092098;28;20032;-74
2021/11/26 11:28:35;;;;;;;11.27;3.60;;;7.40;78.50;;;;;;5093608;28;20021;-74
2021/11/26 11:31:01;;;;;;;6.85;2.75;;;7.50;78.20;;;;;;5096589;28;20024;-74
2021/11/26 11:33:29;;;;;;;5.68;2.58;;;7.40;78.20;;;;;;5096807;28;20028;-76
2021/11/26 11:36:07;;;;;;;11.23;3.42;;;7.40;78.40;;;;;;5096666;28;20032;-76
2021/11/26 11:38:35;;;;;;;7.35;2.90;;;7.40;78.00;;;;;;5096498;28;20032;-75
2021/11/26 11:41:04;;;;;;;5.78;2.45;;;7.40;78.30;;;;;;5097044;28;20058;-76
2021/11/26 11:47:00;;;;;;;6.38;2.42;;;7.40;78.30;;;;;;5097411;28;20061;-77
2021/11/26 11:49:35;;;;;;;12.20;3.22;;;7.40;77.90;;;;;;5095471;28;20089;-75
2021/11/26 11:52:09;;;;;;;7.18;2.53;;;7.40;77.80;;;;;;5095564;28;20122;-76
2021/11/26 11:54:45;;;;;;;10.90;3.25;;;7.40;77.70;;;;;;5095923;28;20024;-77
2021/11/26 11:57:28;;;;;;;13.02;3.30;;;7.50;77.80;;;;;;5095467;28;20387;-76
2021/11/26 12:00:15;;;;;;;9.25;3.35;;;7.50;77.70;;;;;;5095103;28;20032;-75
2021/11/26 12:02:49;;;;;;;7.55;3.22;;;7.50;77.20;;;;;;5095408;28;20438;-78
2021/11/26 12:05:23;;;;;;;8.80;3.20;;;7.60;77.70;;;;;;5095267;28;20043;-76
2021/11/26 12:11:23;;;;;;;6.45;2.90;;;7.60;77.20;;;;;;5096908;28;20031;-75
2021/11/26 12:14:02;;;;;;;9.60;2.58;;;7.60;77.50;;;;;;5094814;28;20048;-75
2021/11/26 12:16:29;;;;;;;11.85;2.80;;;7.60;77.70;;;;;;5095073;28;20027;-74
2021/11/26 12:18:55;;;;;;;9.50;3.40;;;7.60;77.80;;;;;;5094854;28;20024;-74
2021/11/26 12:21:32;;;;;;;6.80;3.15;;;7.50;77.80;;;;;;5095132;28;20115;-76
2021/11/26 12:24:09;;;;;;;10.27;2.90;;;7.50;77.70;;;;;;5094838;28;20020;-76
2021/11/26 12:27:02;;;;;;;6.78;2.60;;;7.40;78.10;;;;;;5094833;28;20032;-75
2021/11/26 12:29:44;;;;;;;4.32;2.40;;;7.30;78.30;;;;;;5092689;28;20028;-76
2021/11/26 12:32:17;;;;;;;8.95;3.35;;;7.30;78.90;;;;;;5094734;28;20032;-77
2021/11/26 12:34:51;;;;;;;7.28;3.05;;;7.20;78.90;;;;;;5094769;28;20463;-75
2021/11/26 12:37:24;;;;;;;8.73;3.50;;;7.10;79.10;;;;;;5094595;28;20036;-77
2021/11/26 12:39:52;;;;;;;8.07;3.33;;;7.10;79.30;;;;;;5094472;28;20043;-76
2021/11/26 12:42:19;;;;;;;6.95;3.13;;;7.10;79.40;;;;;;5094573;28;20443;-75
2021/11/26 12:45:12;;;;;;;6.55;3.20;;;7.10;79.50;;;;;;5094509;28;20361;-76
2021/11/26 12:47:45;;;;;;;5.18;2.85;;;7.00;79.60;;;;;;5094907;28;20023;-77
2021/11/26 12:53:13;;;;;;;7.22;3.20;;;6.90;80.20;;;;;;5096072;28;20388;-75
2021/11/26 12:55:55;;;;;;;5.53;2.67;;;6.80;80.40;;;;;;5094241;28;20073;-75
2021/11/26 12:58:22;;;;;;;6.18;3.20;;;6.80;81.70;;;;;;5094184;28;20111;-74
2021/11/26 13:00:52;;;;;;;6.53;3.00;;;6.70;81.60;;;;;;5095442;28;20500;-76
2021/11/26 13:03:18;;;;;;;7.30;2.85;;;6.60;81.50;;;;;;5094179;28;20388;-76
2021/11/26 13:05:54;;;;;;;6.97;2.97;;;6.60;81.50;;;;;;5094142;28;20016;-76
2021/11/26 13:08:20;;;;;;;7.30;2.78;;;6.60;81.60;;;;;;5094011;28;20030;-77
2021/11/26 13:10:46;;;;;;;6.05;3.00;;;6.50;81.70;;;;;;5094211;28;20119;-76
2021/11/26 13:13:11;;;;;;;5.88;3.03;;;6.50;81.80;;;;;;5093984;28;20568;-74
2021/11/26 13:15:38;;;;;;;4.97;2.80;;;6.50;81.90;;;;;;5094079;28;20114;-77
2021/11/26 13:18:10;;;;;;;3.83;2.40;;;6.50;82.00;;;;;;5093867;28;20024;-75
2021/11/26 13:20:47;;;;;;;6.90;2.45;;;6.40;82.10;;;;;;5093905;28;20468;-76
2021/11/26 13:23:19;;;;;;;4.10;2.00;;;6.40;82.50;;;;;;5093914;28;20016;-76